AVA9401 SKBO-SKCG
Flight info
| Callsign | AVA9401 |
|---|---|
| Flight time | 1h 12m |
| Altitude | 39000 |
| Route | OSUSU4R GIKPU UQ120 PADUD DCT OPNIR DCT UGREB UGREB3B |
| Aircraft | A20N/M-SDE2E3FGHIRWXY/LB1 |
Departure
| Time | 2026-04-25 05:00 |
|---|---|
| Airport | El Dorado International Airport (SKBO) |
Arrival
| Time | 2026-04-25 06:12 |
|---|---|
| Airport | Rafael Nuñez International Airport (SKCG) |
| Time | Latitude | Longitude | Altitude | Speed | Heading |
|---|---|---|---|---|---|
| 2026-04-25 04:11 | 4.69731 | -74.14465 | 8366 ft | 0 kts | 37° |
| 2026-04-25 04:29 | 4.69726 | -74.14469 | 8365 ft | 2 kts | 37° |
| 2026-04-25 04:29 | 4.69714 | -74.14478 | 8366 ft | 2 kts | 37° |
| 2026-04-25 04:29 | 4.69703 | -74.14487 | 8366 ft | 2 kts | 37° |
| 2026-04-25 04:30 | 4.69691 | -74.14497 | 8366 ft | 1 kts | 37° |
| 2026-04-25 04:30 | 4.69685 | -74.14501 | 8366 ft | 1 kts | 19° |
| 2026-04-25 04:30 | 4.69676 | -74.14500 | 8366 ft | 1 kts | 325° |
| 2026-04-25 04:30 | 4.69671 | -74.14496 | 8366 ft | 1 kts | 301° |
| 2026-04-25 04:31 | 4.69669 | -74.14493 | 8366 ft | 0 kts | 306° |
| 2026-04-25 04:36 | 4.69670 | -74.14494 | 8365 ft | 0 kts | 306° |
| 2026-04-25 04:37 | 4.69679 | -74.14504 | 8365 ft | 2 kts | 312° |
| 2026-04-25 04:37 | 4.69689 | -74.14516 | 8365 ft | 0 kts | 311° |
| 2026-04-25 04:37 | 4.69691 | -74.14518 | 8365 ft | 1 kts | 311° |
| 2026-04-25 04:38 | 4.69698 | -74.14526 | 8365 ft | 1 kts | 310° |
| 2026-04-25 04:38 | 4.69709 | -74.14539 | 8365 ft | 2 kts | 308° |
| 2026-04-25 04:38 | 4.69723 | -74.14558 | 8365 ft | 3 kts | 309° |
| 2026-04-25 04:38 | 4.69742 | -74.14581 | 8365 ft | 4 kts | 309° |
| 2026-04-25 04:39 | 4.69759 | -74.14602 | 8365 ft | 0 kts | 307° |
| 2026-04-25 04:39 | 4.69760 | -74.14604 | 8365 ft | 0 kts | 307° |
| 2026-04-25 04:39 | 4.69763 | -74.14608 | 8365 ft | 1 kts | 307° |
| 2026-04-25 04:39 | 4.69770 | -74.14617 | 8365 ft | 2 kts | 306° |
| 2026-04-25 04:40 | 4.69780 | -74.14632 | 8365 ft | 3 kts | 306° |
| 2026-04-25 04:40 | 4.69795 | -74.14651 | 8365 ft | 4 kts | 306° |
| 2026-04-25 04:40 | 4.69814 | -74.14676 | 8365 ft | 4 kts | 308° |
| 2026-04-25 04:40 | 4.69837 | -74.14706 | 8365 ft | 6 kts | 308° |
| 2026-04-25 04:41 | 4.69867 | -74.14741 | 8365 ft | 7 kts | 309° |
| 2026-04-25 04:41 | 4.69901 | -74.14777 | 8365 ft | 7 kts | 339° |
| 2026-04-25 04:41 | 4.69950 | -74.14759 | 8365 ft | 8 kts | 37° |
| 2026-04-25 04:41 | 4.70001 | -74.14719 | 8365 ft | 10 kts | 37° |
| 2026-04-25 04:42 | 4.70058 | -74.14677 | 8365 ft | 10 kts | 38° |
| 2026-04-25 04:42 | 4.70117 | -74.14634 | 8365 ft | 10 kts | 36° |
| 2026-04-25 04:42 | 4.70174 | -74.14592 | 8365 ft | 10 kts | 37° |
| 2026-04-25 04:42 | 4.70236 | -74.14545 | 8365 ft | 12 kts | 37° |
| 2026-04-25 04:43 | 4.70306 | -74.14493 | 8365 ft | 12 kts | 36° |
| 2026-04-25 04:43 | 4.70371 | -74.14443 | 8365 ft | 10 kts | 38° |
| 2026-04-25 04:43 | 4.70427 | -74.14401 | 8365 ft | 10 kts | 38° |
| 2026-04-25 04:43 | 4.70437 | -74.14346 | 8365 ft | 9 kts | 120° |
| 2026-04-25 04:44 | 4.70398 | -74.14295 | 8365 ft | 9 kts | 127° |
| 2026-04-25 04:44 | 4.70362 | -74.14247 | 8365 ft | 8 kts | 127° |
| 2026-04-25 04:44 | 4.70327 | -74.14201 | 8365 ft | 7 kts | 127° |
| 2026-04-25 04:44 | 4.70295 | -74.14158 | 8365 ft | 7 kts | 127° |
| 2026-04-25 04:45 | 4.70265 | -74.14120 | 8365 ft | 6 kts | 127° |
| 2026-04-25 04:45 | 4.70227 | -74.14069 | 8365 ft | 6 kts | 127° |
| 2026-04-25 04:45 | 4.70207 | -74.14043 | 8365 ft | 7 kts | 127° |
| 2026-04-25 04:45 | 4.70176 | -74.14002 | 8365 ft | 8 kts | 127° |
| 2026-04-25 04:46 | 4.70138 | -74.13953 | 8365 ft | 9 kts | 127° |
| 2026-04-25 04:46 | 4.70111 | -74.13917 | 8365 ft | 10 kts | 127° |
| 2026-04-25 04:46 | 4.70065 | -74.13856 | 8365 ft | 11 kts | 127° |
| 2026-04-25 04:46 | 4.70014 | -74.13787 | 8365 ft | 12 kts | 127° |
| 2026-04-25 04:47 | 4.69971 | -74.13730 | 8365 ft | 12 kts | 127° |
| 2026-04-25 04:47 | 4.69917 | -74.13659 | 8365 ft | 12 kts | 127° |
| 2026-04-25 04:47 | 4.69864 | -74.13589 | 8365 ft | 12 kts | 127° |
| 2026-04-25 04:47 | 4.69811 | -74.13520 | 8365 ft | 12 kts | 128° |
| 2026-04-25 04:48 | 4.69757 | -74.13451 | 8365 ft | 12 kts | 127° |
| 2026-04-25 04:48 | 4.69704 | -74.13381 | 8365 ft | 12 kts | 127° |
| 2026-04-25 04:48 | 4.69652 | -74.13312 | 8366 ft | 12 kts | 127° |
| 2026-04-25 04:48 | 4.69600 | -74.13242 | 8365 ft | 12 kts | 127° |
| 2026-04-25 04:49 | 4.69548 | -74.13173 | 8365 ft | 12 kts | 127° |
| 2026-04-25 04:49 | 4.69496 | -74.13105 | 8365 ft | 12 kts | 127° |
| 2026-04-25 04:49 | 4.69444 | -74.13036 | 8365 ft | 12 kts | 127° |
| 2026-04-25 04:49 | 4.69391 | -74.12967 | 8365 ft | 12 kts | 127° |
| 2026-04-25 04:50 | 4.69340 | -74.12899 | 8365 ft | 12 kts | 127° |
| 2026-04-25 04:50 | 4.69287 | -74.12830 | 8365 ft | 12 kts | 127° |
| 2026-04-25 04:50 | 4.69268 | -74.12804 | 8365 ft | 12 kts | 127° |
| 2026-04-25 04:50 | 4.69227 | -74.12750 | 8365 ft | 12 kts | 127° |
| 2026-04-25 04:51 | 4.69189 | -74.12682 | 8366 ft | 9 kts | 89° |
| 2026-04-25 04:51 | 4.69196 | -74.12650 | 8365 ft | 0 kts | 75° |
| 2026-04-25 04:54 | 4.69198 | -74.12646 | 8365 ft | 2 kts | 75° |
| 2026-04-25 04:54 | 4.69207 | -74.12614 | 8365 ft | 6 kts | 74° |
| 2026-04-25 04:55 | 4.69212 | -74.12594 | 8365 ft | 0 kts | 74° |
| 2026-04-25 04:57 | 4.69217 | -74.12576 | 8365 ft | 5 kts | 74° |
| 2026-04-25 04:57 | 4.69235 | -74.12525 | 8365 ft | 9 kts | 59° |
| 2026-04-25 04:57 | 4.69296 | -74.12510 | 8365 ft | 11 kts | 322° |
| 2026-04-25 04:58 | 4.69318 | -74.12536 | 8365 ft | 0 kts | 308° |
| 2026-04-25 04:58 | 4.69323 | -74.12543 | 8366 ft | 6 kts | 308° |
| 2026-04-25 04:59 | 4.69459 | -74.12722 | 8366 ft | 66 kts | 307° |
| 2026-04-25 04:59 | 4.69871 | -74.13267 | 8366 ft | 128 kts | 307° |
| 2026-04-25 04:59 | 4.70522 | -74.14127 | 8366 ft | 179 kts | 307° |
| 2026-04-25 04:59 | 4.71311 | -74.15167 | 8745 ft | 192 kts | 307° |
| 2026-04-25 05:00 | 4.72119 | -74.16249 | 9345 ft | 196 kts | 307° |
| 2026-04-25 05:00 | 4.73250 | -74.17724 | 10066 ft | 210 kts | 314° |
| 2026-04-25 05:00 | 4.74051 | -74.18309 | 10271 ft | 218 kts | 338° |
| 2026-04-25 05:00 | 4.75579 | -74.18452 | 10525 ft | 232 kts | 14° |
| 2026-04-25 05:01 | 4.77096 | -74.17818 | 10823 ft | 245 kts | 26° |
| 2026-04-25 05:01 | 4.78684 | -74.17020 | 11005 ft | 266 kts | 26° |
| 2026-04-25 05:01 | 4.80366 | -74.16187 | 11523 ft | 274 kts | 26° |
| 2026-04-25 05:01 | 4.82083 | -74.15359 | 12228 ft | 275 kts | 25° |
| 2026-04-25 05:02 | 4.83815 | -74.14535 | 12906 ft | 278 kts | 25° |
| 2026-04-25 05:02 | 4.85560 | -74.13709 | 13565 ft | 280 kts | 25° |
| 2026-04-25 05:02 | 4.87266 | -74.12776 | 14214 ft | 283 kts | 34° |
| 2026-04-25 05:02 | 4.88851 | -74.11533 | 14769 ft | 291 kts | 43° |
| 2026-04-25 05:03 | 4.90344 | -74.10091 | 15070 ft | 307 kts | 45° |
| 2026-04-25 05:03 | 4.91885 | -74.08540 | 15367 ft | 324 kts | 45° |
| 2026-04-25 05:03 | 4.93500 | -74.06912 | 15788 ft | 335 kts | 45° |
| 2026-04-25 05:03 | 4.95165 | -74.05247 | 16438 ft | 338 kts | 45° |
| 2026-04-25 05:04 | 4.96848 | -74.03573 | 17103 ft | 341 kts | 45° |
| 2026-04-25 05:04 | 4.98546 | -74.01888 | 17732 ft | 344 kts | 45° |
| 2026-04-25 05:04 | 5.00265 | -74.00213 | 18338 ft | 348 kts | 40° |
| 2026-04-25 05:04 | 5.02253 | -73.98830 | 18923 ft | 351 kts | 27° |
| 2026-04-25 05:05 | 5.02931 | -73.98500 | 19105 ft | 352 kts | 23° |
| 2026-04-25 05:05 | 5.04711 | -73.97884 | 19558 ft | 354 kts | 15° |
| 2026-04-25 05:05 | 5.07159 | -73.97263 | 20150 ft | 357 kts | 13° |
| 2026-04-25 05:05 | 5.08201 | -73.97018 | 20388 ft | 358 kts | 13° |
| 2026-04-25 05:06 | 5.10675 | -73.96437 | 20944 ft | 362 kts | 13° |
| 2026-04-25 05:06 | 5.13119 | -73.95854 | 21486 ft | 365 kts | 13° |
| 2026-04-25 05:06 | 5.15590 | -73.95254 | 22018 ft | 368 kts | 14° |
| 2026-04-25 05:06 | 5.18081 | -73.94640 | 22537 ft | 371 kts | 14° |
| 2026-04-25 05:07 | 5.20587 | -73.94018 | 23044 ft | 374 kts | 14° |
| 2026-04-25 05:07 | 5.23132 | -73.93385 | 23543 ft | 377 kts | 14° |
| 2026-04-25 05:07 | 5.25657 | -73.92755 | 24021 ft | 379 kts | 14° |
| 2026-04-25 05:07 | 5.28250 | -73.92110 | 24496 ft | 382 kts | 14° |
| 2026-04-25 05:08 | 5.30204 | -73.91625 | 24844 ft | 384 kts | 14° |
| 2026-04-25 05:08 | 5.32809 | -73.90977 | 25295 ft | 387 kts | 14° |
| 2026-04-25 05:08 | 5.35437 | -73.90323 | 25734 ft | 390 kts | 14° |
| 2026-04-25 05:08 | 5.38084 | -73.89663 | 26160 ft | 392 kts | 14° |
| 2026-04-25 05:09 | 5.40727 | -73.89004 | 26572 ft | 395 kts | 14° |
| 2026-04-25 05:09 | 5.43415 | -73.88333 | 26979 ft | 397 kts | 14° |
| 2026-04-25 05:09 | 5.46090 | -73.87666 | 27370 ft | 400 kts | 14° |
| 2026-04-25 05:09 | 5.48790 | -73.86992 | 27753 ft | 402 kts | 14° |
| 2026-04-25 05:10 | 5.51514 | -73.86313 | 28130 ft | 405 kts | 14° |
| 2026-04-25 05:10 | 5.54239 | -73.85678 | 28491 ft | 407 kts | 12° |
| 2026-04-25 05:10 | 5.57016 | -73.85101 | 28850 ft | 409 kts | 11° |
| 2026-04-25 05:10 | 5.59836 | -73.84524 | 29202 ft | 412 kts | 11° |
| 2026-04-25 05:11 | 5.62306 | -73.84019 | 29501 ft | 414 kts | 11° |
| 2026-04-25 05:11 | 5.65870 | -73.83289 | 29922 ft | 416 kts | 11° |
| 2026-04-25 05:12 | 5.71558 | -73.82118 | 30555 ft | 421 kts | 11° |
| 2026-04-25 05:12 | 5.74419 | -73.81529 | 30860 ft | 423 kts | 11° |
| 2026-04-25 05:12 | 5.77299 | -73.80936 | 31157 ft | 425 kts | 11° |
| 2026-04-25 05:12 | 5.80207 | -73.80337 | 31448 ft | 427 kts | 11° |
| 2026-04-25 05:13 | 5.83091 | -73.79742 | 31725 ft | 428 kts | 11° |
| 2026-04-25 05:13 | 5.86025 | -73.79137 | 31995 ft | 430 kts | 11° |
| 2026-04-25 05:13 | 5.88952 | -73.78533 | 32254 ft | 432 kts | 11° |
| 2026-04-25 05:13 | 5.91886 | -73.77927 | 32503 ft | 434 kts | 11° |
| 2026-04-25 05:14 | 5.94838 | -73.77317 | 32745 ft | 436 kts | 11° |
| 2026-04-25 05:14 | 5.97809 | -73.76704 | 32980 ft | 437 kts | 11° |
| 2026-04-25 05:14 | 6.00222 | -73.76206 | 33160 ft | 438 kts | 11° |
| 2026-04-25 05:15 | 6.06182 | -73.74980 | 33603 ft | 441 kts | 11° |
| 2026-04-25 05:15 | 6.09171 | -73.74367 | 33886 ft | 440 kts | 11° |
| 2026-04-25 05:15 | 6.12215 | -73.73742 | 34179 ft | 439 kts | 11° |
| 2026-04-25 05:15 | 6.15156 | -73.73140 | 34444 ft | 438 kts | 11° |
| 2026-04-25 05:16 | 6.18151 | -73.72526 | 34699 ft | 438 kts | 11° |
| 2026-04-25 05:16 | 6.21122 | -73.71915 | 34941 ft | 437 kts | 11° |
| 2026-04-25 05:16 | 6.24077 | -73.71307 | 35174 ft | 437 kts | 11° |
| 2026-04-25 05:16 | 6.27060 | -73.70692 | 35402 ft | 436 kts | 11° |
| 2026-04-25 05:17 | 6.29257 | -73.70239 | 35566 ft | 436 kts | 11° |
| 2026-04-25 05:17 | 6.32223 | -73.69626 | 35779 ft | 436 kts | 11° |
| 2026-04-25 05:17 | 6.34363 | -73.69184 | 35929 ft | 435 kts | 11° |
| 2026-04-25 05:17 | 6.37301 | -73.68577 | 36128 ft | 435 kts | 12° |
| 2026-04-25 05:18 | 6.40253 | -73.67966 | 36317 ft | 435 kts | 12° |
| 2026-04-25 05:18 | 6.43230 | -73.67350 | 36496 ft | 434 kts | 11° |
| 2026-04-25 05:18 | 6.46167 | -73.66788 | 36653 ft | 435 kts | 7° |
| 2026-04-25 05:18 | 6.49183 | -73.66624 | 36782 ft | 435 kts | 358° |
| 2026-04-25 05:19 | 6.52197 | -73.66924 | 36924 ft | 435 kts | 349° |
| 2026-04-25 05:19 | 6.55118 | -73.67657 | 37066 ft | 435 kts | 341° |
| 2026-04-25 05:19 | 6.57892 | -73.68773 | 37207 ft | 435 kts | 335° |
| 2026-04-25 05:19 | 6.60649 | -73.70053 | 37360 ft | 434 kts | 335° |
| 2026-04-25 05:20 | 6.63371 | -73.71343 | 37498 ft | 434 kts | 335° |
| 2026-04-25 05:20 | 6.66096 | -73.72632 | 37630 ft | 434 kts | 335° |
| 2026-04-25 05:20 | 6.68815 | -73.73911 | 37758 ft | 434 kts | 335° |
| 2026-04-25 05:20 | 6.71552 | -73.75193 | 37883 ft | 434 kts | 335° |
| 2026-04-25 05:21 | 6.74290 | -73.76472 | 37933 ft | 436 kts | 335° |
| 2026-04-25 05:21 | 6.79824 | -73.79051 | 37967 ft | 441 kts | 335° |
| 2026-04-25 05:22 | 6.85401 | -73.81647 | 37972 ft | 446 kts | 335° |
| 2026-04-25 05:22 | 6.91053 | -73.84278 | 37958 ft | 450 kts | 335° |
| 2026-04-25 05:23 | 6.96710 | -73.86911 | 38003 ft | 452 kts | 335° |
| 2026-04-25 05:23 | 7.02411 | -73.89566 | 38008 ft | 452 kts | 335° |
| 2026-04-25 05:24 | 7.08123 | -73.92226 | 38010 ft | 454 kts | 335° |
| 2026-04-25 05:24 | 7.13852 | -73.94888 | 38010 ft | 457 kts | 335° |
| 2026-04-25 05:25 | 7.19599 | -73.97553 | 38010 ft | 460 kts | 335° |
| 2026-04-25 05:25 | 7.25403 | -74.00252 | 38010 ft | 462 kts | 335° |
| 2026-04-25 05:26 | 7.31034 | -74.02876 | 38010 ft | 464 kts | 335° |
| 2026-04-25 05:26 | 7.36160 | -74.05273 | 37995 ft | 467 kts | 336° |
| 2026-04-25 05:27 | 7.42075 | -74.08030 | 37973 ft | 469 kts | 336° |
| 2026-04-25 05:27 | 7.47996 | -74.10791 | 37960 ft | 471 kts | 336° |
| 2026-04-25 05:28 | 7.53899 | -74.13545 | 37953 ft | 471 kts | 336° |
| 2026-04-25 05:28 | 7.59853 | -74.16325 | 37950 ft | 471 kts | 336° |
| 2026-04-25 05:29 | 7.65762 | -74.19084 | 37949 ft | 471 kts | 336° |
| 2026-04-25 05:29 | 7.71684 | -74.21851 | 37949 ft | 471 kts | 336° |
| 2026-04-25 05:30 | 7.77620 | -74.24625 | 37949 ft | 471 kts | 336° |
| 2026-04-25 05:30 | 7.83548 | -74.27395 | 37949 ft | 471 kts | 336° |
| 2026-04-25 05:31 | 7.89473 | -74.30165 | 37949 ft | 471 kts | 336° |
| 2026-04-25 05:31 | 7.95392 | -74.32935 | 37949 ft | 471 kts | 336° |
| 2026-04-25 05:32 | 8.01273 | -74.35686 | 37941 ft | 454 kts | 336° |
| 2026-04-25 05:32 | 8.04071 | -74.36997 | 37939 ft | 441 kts | 336° |
| 2026-04-25 05:32 | 8.06836 | -74.38290 | 37945 ft | 439 kts | 336° |
| 2026-04-25 05:33 | 8.12392 | -74.40887 | 37948 ft | 439 kts | 336° |
| 2026-04-25 05:33 | 8.17910 | -74.43457 | 37949 ft | 439 kts | 336° |
| 2026-04-25 05:34 | 8.23434 | -74.46038 | 37949 ft | 439 kts | 336° |
| 2026-04-25 05:34 | 8.28991 | -74.48640 | 37669 ft | 443 kts | 336° |
| 2026-04-25 05:34 | 8.31782 | -74.49947 | 36916 ft | 449 kts | 336° |
| 2026-04-25 05:35 | 8.34597 | -74.51266 | 36227 ft | 451 kts | 336° |
| 2026-04-25 05:35 | 8.37457 | -74.52608 | 35589 ft | 450 kts | 336° |
| 2026-04-25 05:35 | 8.40279 | -74.53931 | 34961 ft | 450 kts | 336° |
| 2026-04-25 05:35 | 8.43093 | -74.55251 | 34325 ft | 450 kts | 336° |
| 2026-04-25 05:36 | 8.45905 | -74.56570 | 33690 ft | 450 kts | 336° |
| 2026-04-25 05:36 | 8.48736 | -74.57900 | 33044 ft | 450 kts | 336° |
| 2026-04-25 05:36 | 8.51557 | -74.59223 | 32402 ft | 450 kts | 336° |
| 2026-04-25 05:36 | 8.54388 | -74.60552 | 31758 ft | 450 kts | 336° |
| 2026-04-25 05:37 | 8.57219 | -74.61881 | 31310 ft | 445 kts | 336° |
| 2026-04-25 05:37 | 8.59985 | -74.63180 | 30887 ft | 440 kts | 336° |
| 2026-04-25 05:37 | 8.62728 | -74.64468 | 30461 ft | 435 kts | 336° |
| 2026-04-25 05:37 | 8.65452 | -74.65751 | 30031 ft | 430 kts | 335° |
| 2026-04-25 05:38 | 8.68140 | -74.67028 | 29606 ft | 426 kts | 335° |
| 2026-04-25 05:38 | 8.70814 | -74.68298 | 29178 ft | 422 kts | 336° |
| 2026-04-25 05:38 | 8.73432 | -74.69537 | 28758 ft | 418 kts | 336° |
| 2026-04-25 05:38 | 8.76064 | -74.70779 | 28336 ft | 415 kts | 336° |
| 2026-04-25 05:39 | 8.78653 | -74.71999 | 27921 ft | 411 kts | 336° |
| 2026-04-25 05:39 | 8.81249 | -74.73221 | 27504 ft | 408 kts | 336° |
| 2026-04-25 05:39 | 8.83778 | -74.74410 | 27092 ft | 404 kts | 336° |
| 2026-04-25 05:39 | 8.86342 | -74.75616 | 26676 ft | 401 kts | 336° |
| 2026-04-25 05:40 | 8.88854 | -74.76798 | 26266 ft | 398 kts | 336° |
| 2026-04-25 05:40 | 8.91347 | -74.77970 | 25859 ft | 395 kts | 336° |
| 2026-04-25 05:40 | 8.93825 | -74.79135 | 25452 ft | 393 kts | 336° |
| 2026-04-25 05:40 | 8.96299 | -74.80299 | 25043 ft | 390 kts | 336° |
| 2026-04-25 05:41 | 8.98743 | -74.81449 | 24635 ft | 387 kts | 336° |
| 2026-04-25 05:41 | 9.01174 | -74.82594 | 24218 ft | 384 kts | 336° |
| 2026-04-25 05:41 | 9.03585 | -74.83727 | 23804 ft | 382 kts | 336° |
| 2026-04-25 05:41 | 9.05978 | -74.84854 | 23388 ft | 380 kts | 336° |
| 2026-04-25 05:42 | 9.08370 | -74.85980 | 22971 ft | 378 kts | 336° |
| 2026-04-25 05:42 | 9.10731 | -74.87091 | 22556 ft | 376 kts | 336° |
| 2026-04-25 05:42 | 9.13094 | -74.88198 | 22141 ft | 374 kts | 336° |
| 2026-04-25 05:42 | 9.15453 | -74.89304 | 21734 ft | 372 kts | 336° |
| 2026-04-25 05:43 | 9.17788 | -74.90399 | 21337 ft | 370 kts | 336° |
| 2026-04-25 05:43 | 9.20107 | -74.91489 | 20946 ft | 367 kts | 336° |
| 2026-04-25 05:43 | 9.22432 | -74.92584 | 20553 ft | 365 kts | 336° |
| 2026-04-25 05:43 | 9.24717 | -74.93659 | 20167 ft | 362 kts | 336° |
| 2026-04-25 05:44 | 9.26990 | -74.94730 | 19781 ft | 360 kts | 336° |
| 2026-04-25 05:44 | 9.29244 | -74.95792 | 19399 ft | 357 kts | 336° |
| 2026-04-25 05:44 | 9.31484 | -74.96848 | 19018 ft | 355 kts | 336° |
| 2026-04-25 05:44 | 9.33713 | -74.97900 | 18636 ft | 352 kts | 336° |
| 2026-04-25 05:45 | 9.35946 | -74.98953 | 18251 ft | 350 kts | 336° |
| 2026-04-25 05:45 | 9.38136 | -74.99985 | 17874 ft | 348 kts | 336° |
| 2026-04-25 05:45 | 9.40316 | -75.01013 | 17496 ft | 345 kts | 336° |
| 2026-04-25 05:45 | 9.42495 | -75.02041 | 17119 ft | 343 kts | 336° |
| 2026-04-25 05:46 | 9.44634 | -75.03050 | 16747 ft | 341 kts | 336° |
| 2026-04-25 05:46 | 9.46800 | -75.04073 | 16370 ft | 339 kts | 336° |
| 2026-04-25 05:46 | 9.48911 | -75.05068 | 16001 ft | 336 kts | 336° |
| 2026-04-25 05:46 | 9.51025 | -75.06066 | 15629 ft | 334 kts | 336° |
| 2026-04-25 05:47 | 9.51878 | -75.06469 | 15479 ft | 333 kts | 336° |
| 2026-04-25 05:47 | 9.53468 | -75.07220 | 15198 ft | 332 kts | 336° |
| 2026-04-25 05:47 | 9.55537 | -75.08196 | 14833 ft | 330 kts | 336° |
| 2026-04-25 05:48 | 9.57614 | -75.09177 | 14464 ft | 328 kts | 336° |
| 2026-04-25 05:48 | 9.59686 | -75.10155 | 14095 ft | 326 kts | 336° |
| 2026-04-25 05:48 | 9.61732 | -75.11121 | 13730 ft | 324 kts | 336° |
| 2026-04-25 05:48 | 9.63751 | -75.12074 | 13370 ft | 322 kts | 336° |
| 2026-04-25 05:49 | 9.65788 | -75.13036 | 13006 ft | 321 kts | 336° |
| 2026-04-25 05:49 | 9.67785 | -75.13980 | 12646 ft | 319 kts | 336° |
| 2026-04-25 05:49 | 9.69804 | -75.14934 | 12283 ft | 317 kts | 336° |
| 2026-04-25 05:49 | 9.71791 | -75.15874 | 11927 ft | 316 kts | 336° |
| 2026-04-25 05:50 | 9.73729 | -75.16889 | 11571 ft | 315 kts | 332° |
| 2026-04-25 05:50 | 9.75588 | -75.18051 | 11217 ft | 314 kts | 328° |
| 2026-04-25 05:50 | 9.77428 | -75.19279 | 10863 ft | 312 kts | 328° |
| 2026-04-25 05:50 | 9.79229 | -75.20490 | 10516 ft | 310 kts | 328° |
| 2026-04-25 05:51 | 9.81005 | -75.21684 | 10176 ft | 308 kts | 328° |
| 2026-04-25 05:51 | 9.82787 | -75.22879 | 10030 ft | 298 kts | 328° |
| 2026-04-25 05:51 | 9.84460 | -75.24000 | 9945 ft | 288 kts | 328° |
| 2026-04-25 05:51 | 9.86133 | -75.25118 | 9610 ft | 287 kts | 328° |
| 2026-04-25 05:52 | 9.87798 | -75.26231 | 9296 ft | 285 kts | 328° |
| 2026-04-25 05:52 | 9.89428 | -75.27320 | 8993 ft | 282 kts | 328° |
| 2026-04-25 05:52 | 9.91074 | -75.28420 | 8693 ft | 280 kts | 328° |
| 2026-04-25 05:52 | 9.92680 | -75.29495 | 8399 ft | 278 kts | 328° |
| 2026-04-25 05:53 | 9.94310 | -75.30585 | 8100 ft | 275 kts | 328° |
| 2026-04-25 05:53 | 9.95885 | -75.31640 | 7815 ft | 273 kts | 328° |
| 2026-04-25 05:53 | 9.97453 | -75.32690 | 7575 ft | 267 kts | 328° |
| 2026-04-25 05:53 | 9.99003 | -75.33727 | 7344 ft | 261 kts | 328° |
| 2026-04-25 05:54 | 10.00528 | -75.34747 | 7012 ft | 261 kts | 328° |
| 2026-04-25 05:54 | 10.02032 | -75.35753 | 6723 ft | 258 kts | 328° |
| 2026-04-25 05:54 | 10.05042 | -75.37766 | 6151 ft | 258 kts | 328° |
| 2026-04-25 05:55 | 10.06521 | -75.38757 | 5871 ft | 256 kts | 328° |
| 2026-04-25 05:55 | 10.08002 | -75.39748 | 5594 ft | 255 kts | 328° |
| 2026-04-25 05:55 | 10.09493 | -75.40747 | 5322 ft | 253 kts | 328° |
| 2026-04-25 05:55 | 10.10966 | -75.41730 | 5074 ft | 251 kts | 328° |
| 2026-04-25 05:56 | 10.12425 | -75.42698 | 5029 ft | 253 kts | 328° |
| 2026-04-25 05:56 | 10.13911 | -75.43686 | 5021 ft | 252 kts | 328° |
| 2026-04-25 05:56 | 10.15371 | -75.44661 | 5016 ft | 252 kts | 328° |
| 2026-04-25 05:56 | 10.16862 | -75.45657 | 5016 ft | 254 kts | 328° |
| 2026-04-25 05:57 | 10.18326 | -75.46639 | 5014 ft | 252 kts | 328° |
| 2026-04-25 05:57 | 10.19792 | -75.47621 | 5015 ft | 253 kts | 328° |
| 2026-04-25 05:57 | 10.21274 | -75.48614 | 5018 ft | 253 kts | 328° |
| 2026-04-25 05:57 | 10.22743 | -75.49599 | 5018 ft | 252 kts | 328° |
| 2026-04-25 05:58 | 10.24204 | -75.50579 | 5013 ft | 252 kts | 328° |
| 2026-04-25 05:58 | 10.25677 | -75.51566 | 5015 ft | 252 kts | 328° |
| 2026-04-25 05:58 | 10.27193 | -75.52418 | 4996 ft | 249 kts | 346° |
| 2026-04-25 05:58 | 10.28893 | -75.52415 | 4996 ft | 247 kts | 20° |
| 2026-04-25 05:59 | 10.30309 | -75.51472 | 5003 ft | 246 kts | 52° |
| 2026-04-25 05:59 | 10.31012 | -75.49905 | 5010 ft | 246 kts | 83° |
| 2026-04-25 05:59 | 10.30788 | -75.48185 | 5015 ft | 248 kts | 115° |
| 2026-04-25 05:59 | 10.29692 | -75.46829 | 5026 ft | 253 kts | 143° |
| 2026-04-25 06:00 | 10.28253 | -75.45848 | 5026 ft | 252 kts | 146° |
| 2026-04-25 06:00 | 10.26768 | -75.44890 | 5018 ft | 252 kts | 146° |
| 2026-04-25 06:00 | 10.25298 | -75.43932 | 5018 ft | 252 kts | 146° |
| 2026-04-25 06:00 | 10.23817 | -75.42974 | 5013 ft | 251 kts | 151° |
| 2026-04-25 06:01 | 10.22128 | -75.42562 | 5004 ft | 256 kts | 185° |
| 2026-04-25 06:01 | 10.20487 | -75.43195 | 5015 ft | 257 kts | 219° |
| 2026-04-25 06:01 | 10.19443 | -75.44656 | 5013 ft | 257 kts | 253° |
| 2026-04-25 06:01 | 10.19360 | -75.46451 | 5013 ft | 256 kts | 287° |
| 2026-04-25 06:02 | 10.20239 | -75.47983 | 5010 ft | 252 kts | 320° |
| 2026-04-25 06:02 | 10.21670 | -75.49002 | 5021 ft | 251 kts | 329° |
| 2026-04-25 06:02 | 10.23160 | -75.49943 | 5019 ft | 252 kts | 329° |
| 2026-04-25 06:02 | 10.24632 | -75.50889 | 5016 ft | 251 kts | 329° |
| 2026-04-25 06:03 | 10.26107 | -75.51857 | 5016 ft | 252 kts | 328° |
| 2026-04-25 06:03 | 10.27677 | -75.52633 | 4988 ft | 249 kts | 353° |
| 2026-04-25 06:03 | 10.29360 | -75.52389 | 5001 ft | 247 kts | 30° |
| 2026-04-25 06:03 | 10.30592 | -75.51239 | 5008 ft | 246 kts | 60° |
| 2026-04-25 06:04 | 10.31086 | -75.49580 | 5012 ft | 247 kts | 90° |
| 2026-04-25 06:04 | 10.30681 | -75.47902 | 4937 ft | 243 kts | 120° |
| 2026-04-25 06:04 | 10.29538 | -75.46695 | 4702 ft | 240 kts | 144° |
| 2026-04-25 06:04 | 10.28149 | -75.45774 | 4421 ft | 238 kts | 147° |
| 2026-04-25 06:05 | 10.26726 | -75.44862 | 4090 ft | 238 kts | 146° |
| 2026-04-25 06:05 | 10.25344 | -75.43963 | 3772 ft | 238 kts | 146° |
| 2026-04-25 06:05 | 10.23952 | -75.43053 | 3477 ft | 237 kts | 149° |
| 2026-04-25 06:05 | 10.22375 | -75.42574 | 3170 ft | 237 kts | 181° |
| 2026-04-25 06:06 | 10.20832 | -75.43005 | 3039 ft | 237 kts | 212° |
| 2026-04-25 06:06 | 10.19680 | -75.44211 | 3022 ft | 238 kts | 244° |
| 2026-04-25 06:06 | 10.19306 | -75.45812 | 3017 ft | 237 kts | 275° |
| 2026-04-25 06:06 | 10.19804 | -75.47409 | 3014 ft | 236 kts | 307° |
| 2026-04-25 06:07 | 10.20990 | -75.48524 | 3023 ft | 232 kts | 327° |
| 2026-04-25 06:07 | 10.22350 | -75.49410 | 3019 ft | 231 kts | 329° |
| 2026-04-25 06:07 | 10.23700 | -75.50275 | 3015 ft | 232 kts | 329° |
| 2026-04-25 06:07 | 10.25078 | -75.51169 | 3015 ft | 233 kts | 328° |
| 2026-04-25 06:08 | 10.26487 | -75.51942 | 2998 ft | 232 kts | 347° |
| 2026-04-25 06:08 | 10.28092 | -75.52045 | 2951 ft | 231 kts | 4° |
| 2026-04-25 06:08 | 10.29692 | -75.51943 | 2614 ft | 231 kts | 5° |
| 2026-04-25 06:08 | 10.30899 | -75.51859 | 2414 ft | 221 kts | 4° |
| 2026-04-25 06:09 | 10.32396 | -75.51769 | 2153 ft | 211 kts | 4° |
| 2026-04-25 06:09 | 10.33817 | -75.51697 | 2000 ft | 204 kts | 4° |
| 2026-04-25 06:09 | 10.34931 | -75.51646 | 1808 ft | 196 kts | 3° |
| 2026-04-25 06:09 | 10.36290 | -75.51588 | 1416 ft | 192 kts | 3° |
| 2026-04-25 06:10 | 10.37589 | -75.51535 | 1115 ft | 180 kts | 3° |
| 2026-04-25 06:10 | 10.38454 | -75.51502 | 1031 ft | 162 kts | 3° |
| 2026-04-25 06:10 | 10.39514 | -75.51466 | 876 ft | 143 kts | 2° |
| 2026-04-25 06:10 | 10.40496 | -75.51438 | 586 ft | 142 kts | 2° |
| 2026-04-25 06:11 | 10.41478 | -75.51408 | 310 ft | 139 kts | 3° |
| 2026-04-25 06:11 | 10.42456 | -75.51366 | 173 ft | 140 kts | 2° |
| 2026-04-25 06:11 | 10.43431 | -75.51331 | 21 ft | 138 kts | 4° |
| 2026-04-25 06:11 | 10.44281 | -75.51283 | 10 ft | 99 kts | 3° |
| 2026-04-25 06:12 | 10.44790 | -75.51267 | 10 ft | 59 kts | 1° |
| 2026-04-25 06:12 | 10.45169 | -75.51251 | 10 ft | 39 kts | 2° |
| 2026-04-25 06:12 | 10.45324 | -75.51250 | 10 ft | 13 kts | 92° |
| 2026-04-25 06:12 | 10.45237 | -75.51248 | 9 ft | 14 kts | 184° |
| 2026-04-25 06:13 | 10.45138 | -75.51253 | 9 ft | 14 kts | 183° |
| 2026-04-25 06:13 | 10.45034 | -75.51258 | 10 ft | 15 kts | 182° |
| 2026-04-25 06:13 | 10.44916 | -75.51263 | 10 ft | 17 kts | 182° |
| 2026-04-25 06:14 | 10.44662 | -75.51289 | 10 ft | 17 kts | 226° |
| 2026-04-25 06:14 | 10.44633 | -75.51400 | 10 ft | 14 kts | 267° |
| 2026-04-25 06:14 | 10.44603 | -75.51457 | 10 ft | 8 kts | 193° |
| 2026-04-25 06:14 | 10.44547 | -75.51485 | 10 ft | 8 kts | 227° |
| 2026-04-25 06:15 | 10.44530 | -75.51534 | 9 ft | 8 kts | 272° |
| 2026-04-25 06:15 | 10.44530 | -75.51565 | 9 ft | 0 kts | 271° |